createdAt,value
2022-11-30T00:01:36.440Z,35.50
2022-11-30T00:04:03.097Z,34.77
2022-11-30T00:06:29.740Z,34.53
2022-11-30T00:08:56.611Z,31.50
2022-11-30T00:11:23.680Z,36.97
2022-11-30T00:13:50.281Z,32.40
2022-11-30T00:16:18.668Z,34.23
2022-11-30T00:18:45.374Z,34.03
2022-11-30T00:21:13.211Z,34.83
2022-11-30T00:23:40.475Z,34.63
2022-11-30T00:26:07.833Z,33.43
2022-11-30T00:28:34.483Z,34.97
2022-11-30T00:31:02.282Z,33.73
2022-11-30T00:33:29.265Z,31.93
2022-11-30T00:35:59.946Z,35.70
2022-11-30T00:38:27.918Z,33.83
2022-11-30T00:40:54.632Z,31.70
2022-11-30T00:43:21.421Z,35.70
2022-11-30T00:45:48.454Z,36.93
2022-11-30T00:48:15.045Z,36.67
2022-11-30T00:50:41.576Z,30.53
2022-11-30T00:53:08.168Z,34.77
2022-11-30T00:58:18.677Z,34.07
2022-11-30T01:00:45.381Z,35.73
2022-11-30T01:03:12.475Z,31.90
2022-11-30T01:05:40.137Z,34.83
2022-11-30T01:08:07.595Z,36.63
2022-11-30T01:10:34.461Z,35.03
2022-11-30T01:13:01.284Z,34.90
2022-11-30T01:18:11.944Z,38.33
2022-11-30T01:23:26.619Z,32.83
2022-11-30T01:25:53.983Z,34.77
2022-11-30T01:28:20.581Z,33.97
2022-11-30T01:30:55.434Z,36.67
2022-11-30T01:33:22.149Z,34.77
2022-11-30T01:35:48.661Z,32.03
2022-11-30T01:38:15.416Z,33.60
2022-11-30T01:40:49.299Z,34.30
2022-11-30T01:43:15.881Z,33.30
2022-11-30T01:45:42.428Z,35.43
2022-11-30T01:48:08.983Z,33.20
2022-11-30T01:50:35.623Z,36.40
2022-11-30T01:53:02.262Z,37.97
2022-11-30T01:55:28.862Z,37.80
2022-11-30T02:00:41.604Z,35.77
2022-11-30T02:03:25.663Z,34.67
2022-11-30T02:05:52.271Z,35.40
2022-11-30T02:08:18.877Z,34.73
2022-11-30T02:10:47.444Z,34.33
2022-11-30T02:13:17.076Z,31.33
2022-11-30T02:15:52.731Z,32.20
2022-11-30T02:18:24.737Z,35.20
2022-11-30T02:24:13.516Z,33.20
2022-11-30T02:26:40.068Z,36.03
2022-11-30T02:29:10.650Z,33.17
2022-11-30T02:34:27.563Z,36.43
2022-11-30T02:39:38.247Z,33.90
2022-11-30T02:44:51.420Z,29.77
2022-11-30T02:50:14.998Z,31.37
2022-11-30T02:55:25.982Z,31.93
2022-11-30T02:57:52.608Z,30.33
2022-11-30T03:00:19.538Z,31.80
2022-11-30T03:02:46.166Z,31.87
2022-11-30T03:07:56.944Z,31.50
2022-11-30T03:13:07.869Z,33.67
2022-11-30T03:18:19.016Z,30.73
2022-11-30T03:20:45.569Z,30.97
2022-11-30T03:23:12.151Z,35.10
2022-11-30T03:25:38.650Z,32.33
2022-11-30T03:28:05.255Z,31.10
2022-11-30T03:30:31.756Z,30.43
2022-11-30T03:32:58.396Z,32.27
2022-11-30T03:35:25.360Z,32.90
2022-11-30T03:37:51.917Z,32.87
2022-11-30T03:40:18.819Z,32.87
2022-11-30T03:45:29.332Z,34.13
2022-11-30T03:50:39.944Z,31.93
2022-11-30T03:53:06.674Z,35.30
2022-11-30T03:55:33.207Z,34.77
2022-11-30T03:57:59.704Z,32.43
2022-11-30T04:03:10.354Z,31.50
2022-11-30T04:05:36.982Z,37.87
2022-11-30T04:08:03.692Z,34.50
2022-11-30T04:10:30.228Z,32.47
2022-11-30T04:15:40.769Z,33.80
2022-11-30T04:20:54.838Z,32.57
2022-11-30T04:26:11.138Z,31.03
2022-11-30T04:28:37.748Z,30.97
2022-11-30T04:31:06.833Z,32.63
2022-11-30T04:33:33.487Z,34.00
2022-11-30T04:36:00.762Z,32.63
2022-11-30T04:38:27.620Z,32.77
2022-11-30T04:40:54.313Z,34.27
2022-11-30T04:43:20.896Z,33.70
2022-11-30T04:45:47.565Z,30.17
2022-11-30T04:48:14.456Z,34.17
2022-11-30T04:50:41.158Z,31.33
2022-11-30T04:53:07.716Z,29.97
2022-11-30T04:55:34.379Z,32.80
2022-11-30T04:58:01.069Z,32.77
2022-11-30T05:00:27.652Z,32.57
2022-11-30T05:02:55.782Z,30.53
2022-11-30T05:05:22.317Z,33.03
2022-11-30T05:07:50.034Z,34.87
2022-11-30T05:10:17.089Z,38.00
2022-11-30T05:12:43.898Z,33.80
2022-11-30T05:15:11.100Z,32.57
2022-11-30T05:17:37.754Z,37.73
2022-11-30T05:20:04.973Z,35.00
2022-11-30T05:22:31.712Z,34.27
2022-11-30T05:24:58.248Z,38.63
2022-11-30T05:27:24.971Z,36.93
2022-11-30T05:29:51.538Z,34.50
2022-11-30T05:32:18.287Z,36.33
2022-11-30T05:34:51.201Z,33.27
2022-11-30T05:37:18.653Z,34.73
2022-11-30T05:39:45.247Z,34.90
2022-11-30T05:42:11.892Z,34.13
2022-11-30T05:44:38.531Z,35.83
2022-11-30T05:47:05.521Z,31.83
2022-11-30T05:49:32.122Z,38.07
2022-11-30T05:51:58.797Z,44.30
2022-11-30T05:57:09.340Z,36.33
2022-11-30T05:59:37.471Z,36.00
2022-11-30T06:02:04.188Z,37.70
2022-11-30T06:04:31.121Z,37.60
2022-11-30T06:06:57.837Z,34.87
2022-11-30T06:09:24.772Z,36.77
2022-11-30T06:11:51.619Z,35.60
2022-11-30T06:14:19.457Z,32.50
2022-11-30T06:16:46.375Z,34.40
2022-11-30T06:19:13.256Z,34.87
2022-11-30T06:21:39.940Z,32.67
2022-11-30T06:24:08.200Z,32.07
2022-11-30T06:26:34.858Z,34.03
2022-11-30T06:29:02.107Z,31.10
2022-11-30T06:31:28.983Z,36.23
2022-11-30T06:33:58.699Z,34.97
2022-11-30T06:36:25.291Z,35.43
2022-11-30T06:38:52.013Z,36.20
2022-11-30T06:41:18.659Z,33.97
2022-11-30T06:43:45.370Z,34.20
2022-11-30T06:46:12.039Z,36.93
2022-11-30T06:48:38.788Z,34.77
2022-11-30T06:51:06.832Z,37.07
2022-11-30T06:53:34.077Z,36.40
2022-11-30T06:56:08.348Z,38.47
2022-11-30T06:58:37.190Z,35.50
2022-11-30T07:01:21.698Z,38.30
2022-11-30T07:06:32.739Z,39.13
2022-11-30T07:08:59.488Z,39.17
2022-11-30T07:11:26.518Z,36.90
2022-11-30T07:13:53.398Z,36.30
2022-11-30T07:16:20.179Z,35.57
2022-11-30T07:18:47.312Z,38.83
2022-11-30T07:21:15.533Z,34.30
2022-11-30T07:24:02.115Z,35.47
2022-11-30T07:26:28.868Z,38.77
2022-11-30T07:28:58.845Z,34.33
2022-11-30T07:31:26.914Z,35.87
2022-11-30T07:33:53.665Z,35.90
2022-11-30T07:36:20.852Z,32.67
2022-11-30T07:38:47.474Z,33.47
2022-11-30T07:41:14.205Z,33.37
2022-11-30T07:43:40.917Z,33.33
2022-11-30T07:46:07.948Z,34.53
2022-11-30T07:48:35.264Z,31.57
2022-11-30T07:51:04.824Z,33.97
2022-11-30T07:53:31.519Z,36.23
2022-11-30T07:56:24.492Z,29.53
2022-11-30T08:01:37.466Z,34.40
2022-11-30T08:04:04.273Z,33.60
2022-11-30T08:06:31.051Z,32.63
2022-11-30T08:08:58.498Z,33.90
2022-11-30T08:14:12.762Z,32.53
2022-11-30T08:19:23.646Z,29.93
2022-11-30T08:21:50.911Z,31.77
2022-11-30T08:24:17.856Z,36.43
2022-11-30T08:26:44.855Z,33.40
2022-11-30T08:29:12.080Z,35.73
2022-11-30T08:31:38.976Z,32.60
2022-11-30T08:34:06.798Z,32.47
2022-11-30T08:36:33.805Z,38.47
2022-11-30T08:39:03.008Z,33.43
2022-11-30T08:41:31.370Z,34.90
2022-11-30T08:43:58.620Z,36.10
2022-11-30T08:49:21.635Z,32.23
2022-11-30T08:54:36.866Z,36.20
2022-11-30T08:57:04.090Z,32.63
2022-11-30T08:59:31.425Z,35.43
2022-11-30T09:04:42.196Z,34.13
2022-11-30T09:07:09.686Z,38.40
2022-11-30T09:09:36.957Z,36.80
2022-11-30T09:12:03.874Z,39.20
2022-11-30T09:14:30.860Z,34.13
2022-11-30T09:16:57.540Z,39.07
2022-11-30T09:19:26.238Z,36.37
2022-11-30T09:21:53.131Z,35.30
2022-11-30T09:24:21.135Z,37.87
2022-11-30T09:26:48.238Z,33.60
2022-11-30T09:29:17.379Z,37.07
2022-11-30T09:31:44.883Z,35.07
2022-11-30T09:34:13.021Z,37.57
2022-11-30T09:36:40.151Z,35.53
2022-11-30T09:39:06.997Z,36.97
2022-11-30T09:41:37.682Z,38.30
2022-11-30T09:47:20.213Z,37.90
2022-11-30T09:52:37.575Z,40.43
2022-11-30T09:57:53.485Z,38.27
2022-11-30T10:03:07.019Z,38.53
2022-11-30T10:05:45.714Z,37.93
2022-11-30T10:08:21.468Z,40.40
2022-11-30T10:14:06.130Z,40.93
2022-11-30T10:19:44.842Z,38.37
2022-11-30T10:22:14.627Z,37.40
2022-11-30T10:24:41.727Z,33.93
2022-11-30T10:27:31.484Z,35.90
2022-11-30T10:29:58.189Z,42.87
2022-11-30T10:32:27.782Z,38.37
2022-11-30T10:34:55.075Z,34.90
2022-11-30T10:37:42.589Z,34.57
2022-11-30T10:40:32.804Z,42.07
2022-11-30T10:43:04.158Z,36.70
2022-11-30T10:45:30.811Z,38.07
2022-11-30T10:48:08.276Z,36.83
2022-11-30T10:50:35.060Z,38.73
2022-11-30T10:53:01.787Z,41.97
2022-11-30T10:55:30.218Z,38.43
2022-11-30T10:58:02.652Z,37.97
2022-11-30T11:00:29.423Z,36.10
2022-11-30T11:02:56.128Z,37.97
2022-11-30T11:05:22.811Z,36.03
2022-11-30T11:07:49.462Z,38.23
2022-11-30T11:10:16.758Z,38.47
2022-11-30T11:12:47.251Z,39.20
2022-11-30T11:15:17.005Z,37.30
2022-11-30T11:17:43.565Z,36.37
2022-11-30T11:20:45.879Z,38.90
2022-11-30T11:23:23.460Z,40.47
2022-11-30T11:28:36.218Z,41.13
2022-11-30T11:31:12.993Z,37.90
2022-11-30T11:33:39.852Z,36.50
2022-11-30T11:36:06.409Z,38.47
2022-11-30T11:38:42.693Z,41.37
2022-11-30T11:41:18.459Z,37.53
2022-11-30T11:46:57.830Z,40.67
2022-11-30T11:52:10.994Z,42.03
2022-11-30T11:54:50.656Z,41.40
2022-11-30T11:57:17.610Z,40.23
2022-11-30T11:59:44.263Z,42.40
2022-11-30T12:02:20.468Z,40.63
2022-11-30T12:04:50.151Z,37.90
2022-11-30T12:07:28.295Z,37.83
2022-11-30T12:10:43.688Z,43.97
2022-11-30T12:13:01.170Z,41.73
2022-11-30T12:15:38.969Z,42.90
2022-11-30T12:18:14.349Z,35.53
2022-11-30T12:20:44.277Z,42.33
2022-11-30T12:23:30.208Z,38.10
2022-11-30T12:26:06.003Z,43.23
2022-11-30T12:31:54.408Z,42.03
2022-11-30T12:34:26.267Z,43.90
2022-11-30T12:37:08.406Z,43.13
2022-11-30T12:39:47.703Z,42.67
2022-11-30T12:42:15.608Z,41.43
2022-11-30T12:44:51.123Z,46.10
2022-11-30T12:47:27.553Z,42.10
2022-11-30T12:50:12.871Z,40.90
2022-11-30T12:52:43.140Z,44.70
2022-11-30T12:55:19.201Z,43.97
2022-11-30T12:57:45.987Z,42.77
2022-11-30T13:00:22.585Z,41.13
2022-11-30T13:03:08.603Z,43.70
2022-11-30T13:08:32.097Z,43.10
2022-11-30T13:11:03.398Z,40.03
2022-11-30T13:13:30.465Z,41.37
2022-11-30T13:15:58.159Z,44.07
2022-11-30T13:18:25.280Z,43.23
2022-11-30T13:20:51.973Z,41.97
2022-11-30T13:23:21.876Z,47.67
2022-11-30T13:28:35.411Z,39.87
2022-11-30T13:33:53.123Z,41.70
2022-11-30T13:36:35.097Z,42.57
2022-11-30T13:39:28.975Z,42.63
2022-11-30T13:42:01.618Z,42.53
2022-11-30T13:44:32.330Z,41.07
2022-11-30T13:47:00.680Z,41.03
2022-11-30T13:52:24.175Z,40.37
2022-11-30T13:54:54.463Z,42.23
2022-11-30T13:57:24.345Z,37.50
2022-11-30T13:59:51.658Z,40.90
2022-11-30T14:02:34.132Z,43.17
2022-11-30T14:05:19.286Z,36.73
2022-11-30T14:07:52.519Z,36.83
2022-11-30T14:10:32.431Z,41.80
2022-11-30T14:12:59.815Z,36.97
2022-11-30T14:15:31.717Z,38.73
2022-11-30T14:17:58.849Z,38.97
2022-11-30T14:20:33.265Z,37.40
2022-11-30T14:23:39.767Z,38.10
2022-11-30T14:26:11.188Z,37.07
2022-11-30T14:28:51.144Z,37.40
2022-11-30T14:31:21.001Z,40.43
2022-11-30T14:33:50.498Z,38.83
2022-11-30T14:36:17.204Z,35.27
2022-11-30T14:41:29.301Z,38.30
2022-11-30T14:43:59.938Z,33.90
2022-11-30T14:46:27.881Z,39.40
2022-11-30T14:49:13.900Z,37.17
2022-11-30T14:51:41.806Z,40.33
2022-11-30T14:54:14.514Z,36.20
2022-11-30T14:56:44.460Z,38.90
2022-11-30T15:02:12.340Z,40.63
2022-11-30T15:04:39.040Z,35.97
2022-11-30T15:07:05.862Z,39.03
2022-11-30T15:09:34.181Z,37.37
2022-11-30T15:12:00.896Z,36.63
2022-11-30T15:14:27.620Z,40.80
2022-11-30T15:16:55.199Z,36.40
2022-11-30T15:19:23.006Z,36.57
2022-11-30T15:21:50.163Z,37.03
2022-11-30T15:24:17.093Z,33.93
2022-11-30T15:29:39.671Z,32.30
2022-11-30T15:32:08.018Z,35.83
2022-11-30T15:34:56.045Z,37.87
2022-11-30T15:40:46.763Z,39.70
2022-11-30T15:43:21.358Z,39.27
2022-11-30T15:45:55.448Z,38.27
2022-11-30T15:51:22.714Z,36.40
2022-11-30T15:53:50.265Z,33.07
2022-11-30T15:56:26.942Z,34.70
2022-11-30T16:02:01.787Z,34.57
2022-11-30T16:04:29.558Z,34.63
2022-11-30T16:06:56.434Z,39.33
2022-11-30T16:09:24.280Z,39.53
2022-11-30T16:14:37.243Z,37.83
2022-11-30T16:19:48.737Z,39.63
2022-11-30T16:24:59.908Z,38.33
2022-11-30T16:30:13.759Z,39.73
2022-11-30T16:32:41.651Z,39.53
2022-11-30T16:35:30.379Z,40.93
2022-11-30T16:38:01.191Z,37.60
2022-11-30T16:40:28.090Z,35.20
2022-11-30T16:42:54.889Z,35.90
2022-11-30T16:45:22.721Z,39.07
2022-11-30T16:47:51.029Z,39.10
2022-11-30T16:50:18.231Z,34.37
2022-11-30T16:55:31.049Z,42.77
2022-11-30T16:57:58.796Z,39.93
2022-11-30T17:00:28.705Z,46.90
2022-11-30T17:06:07.323Z,38.20
2022-11-30T17:08:34.003Z,40.60
2022-11-30T17:11:01.208Z,54.93
2022-11-30T17:13:28.337Z,39.83
2022-11-30T17:18:40.971Z,37.20
2022-11-30T17:21:09.921Z,36.27
2022-11-30T17:23:36.597Z,36.33
2022-11-30T17:26:03.838Z,34.30
2022-11-30T17:28:30.894Z,33.73
2022-11-30T17:30:58.288Z,37.27
2022-11-30T17:33:25.304Z,41.53
2022-11-30T17:35:52.112Z,42.33
2022-11-30T17:38:18.713Z,35.93
2022-11-30T17:40:45.530Z,35.83
2022-11-30T17:43:12.345Z,36.00
2022-11-30T17:45:40.387Z,35.40
2022-11-30T17:48:07.148Z,32.83
2022-11-30T17:50:34.017Z,34.43
2022-11-30T17:53:02.409Z,34.10
2022-11-30T17:55:30.388Z,33.17
2022-11-30T17:57:58.292Z,31.97
2022-11-30T18:00:25.403Z,36.50
2022-11-30T18:02:52.593Z,35.20
2022-11-30T18:05:19.773Z,34.37
2022-11-30T18:07:46.531Z,35.93
2022-11-30T18:10:13.533Z,37.77
2022-11-30T18:12:40.746Z,38.63
2022-11-30T18:15:08.676Z,35.10
2022-11-30T18:17:35.753Z,40.37
2022-11-30T18:20:03.449Z,51.30
2022-11-30T18:22:30.973Z,45.47
2022-11-30T18:24:57.936Z,48.97
2022-11-30T18:27:26.768Z,41.70
2022-11-30T18:29:54.326Z,42.37
2022-11-30T18:32:21.266Z,36.83
2022-11-30T18:34:50.959Z,41.40
2022-11-30T18:37:18.280Z,41.13
2022-11-30T18:39:45.276Z,42.63
2022-11-30T18:42:12.568Z,39.23
2022-11-30T18:44:39.589Z,39.73
2022-11-30T18:47:06.931Z,37.10
2022-11-30T18:49:34.855Z,43.10
2022-11-30T18:52:01.902Z,40.93
2022-11-30T18:54:29.658Z,42.07
2022-11-30T18:56:56.276Z,42.90
2022-11-30T18:59:22.919Z,42.63
2022-11-30T19:01:51.146Z,43.13
2022-11-30T19:07:03.660Z,48.20
2022-11-30T19:09:30.885Z,41.10
2022-11-30T19:12:02.149Z,41.10
2022-11-30T19:14:29.086Z,41.27
2022-11-30T19:16:55.926Z,43.93
2022-11-30T19:19:24.195Z,41.20
2022-11-30T19:21:51.329Z,47.70
2022-11-30T19:24:18.519Z,43.27
2022-11-30T19:26:45.126Z,44.73
2022-11-30T19:29:12.029Z,42.23
2022-11-30T19:34:23.147Z,36.60
2022-11-30T19:36:50.301Z,35.43
2022-11-30T19:39:17.124Z,36.20
2022-11-30T19:41:43.664Z,34.60
2022-11-30T19:44:12.606Z,36.33
2022-11-30T19:46:40.277Z,38.37
2022-11-30T19:49:08.800Z,36.00
2022-11-30T19:51:37.908Z,36.50
2022-11-30T19:54:04.838Z,33.70
2022-11-30T19:56:31.817Z,31.57
2022-11-30T20:01:43.576Z,31.07
2022-11-30T20:06:54.621Z,34.77
2022-11-30T20:09:21.313Z,33.37
2022-11-30T20:11:48.772Z,29.80
2022-11-30T20:14:16.723Z,35.47
2022-11-30T20:16:43.442Z,34.77
2022-11-30T20:19:11.046Z,36.07
2022-11-30T20:21:39.098Z,36.83
2022-11-30T20:24:06.905Z,35.20
2022-11-30T20:26:35.920Z,30.90
2022-11-30T20:29:04.041Z,33.90
2022-11-30T20:31:34.253Z,37.00
2022-11-30T20:34:03.291Z,33.27
2022-11-30T20:36:32.189Z,32.67
2022-11-30T20:38:59.752Z,34.20
2022-11-30T20:41:27.732Z,31.40
2022-11-30T20:43:54.756Z,34.33
2022-11-30T20:46:22.411Z,31.00
2022-11-30T20:48:49.319Z,33.53
2022-11-30T20:51:31.102Z,34.80
2022-11-30T20:54:00.668Z,37.17
2022-11-30T20:56:27.824Z,37.93
2022-11-30T20:58:55.707Z,40.93
2022-11-30T21:04:07.103Z,41.73
2022-11-30T21:06:34.039Z,43.87
2022-11-30T21:09:00.686Z,43.30
2022-11-30T21:11:27.905Z,43.80
2022-11-30T21:16:39.516Z,44.93
2022-11-30T21:19:06.398Z,43.93
2022-11-30T21:21:34.002Z,43.63
2022-11-30T21:24:01.521Z,44.67
2022-11-30T21:29:14.488Z,41.20
2022-11-30T21:31:42.553Z,40.37
2022-11-30T21:34:09.363Z,43.33
2022-11-30T21:36:35.955Z,40.50
2022-11-30T21:39:05.906Z,43.30
2022-11-30T21:41:36.699Z,43.00
2022-11-30T21:46:51.859Z,42.10
2022-11-30T21:49:20.458Z,42.17
2022-11-30T21:51:47.325Z,41.13
2022-11-30T21:54:17.082Z,40.17
2022-11-30T21:56:44.878Z,37.57
2022-11-30T21:59:12.833Z,39.37
2022-11-30T22:01:40.448Z,37.90
2022-11-30T22:04:10.446Z,38.37
2022-11-30T22:06:38.188Z,36.17
2022-11-30T22:09:08.070Z,40.27
2022-11-30T22:11:35.530Z,39.23
2022-11-30T22:14:02.259Z,41.70
2022-11-30T22:16:35.595Z,38.77
2022-11-30T22:19:03.387Z,38.50
2022-11-30T22:21:30.456Z,34.93
2022-11-30T22:23:57.873Z,41.47
2022-11-30T22:26:24.634Z,37.70
2022-11-30T22:28:56.095Z,38.13
2022-11-30T22:31:23.382Z,36.60
2022-11-30T22:33:50.062Z,35.57
2022-11-30T22:36:17.823Z,37.10
2022-11-30T22:38:44.474Z,38.97
2022-11-30T22:41:11.967Z,36.40
2022-11-30T22:43:38.982Z,33.87
2022-11-30T22:46:06.389Z,35.70
2022-11-30T22:48:33.043Z,32.83
2022-11-30T22:51:03.551Z,33.47
2022-11-30T22:53:30.684Z,37.63
2022-11-30T22:56:01.148Z,35.70
2022-11-30T22:58:28.174Z,35.27
2022-11-30T23:00:56.293Z,36.03
2022-11-30T23:03:26.777Z,39.10
2022-11-30T23:05:54.042Z,37.07
2022-11-30T23:08:20.781Z,33.03
2022-11-30T23:10:47.405Z,34.97
2022-11-30T23:13:13.952Z,38.47
2022-11-30T23:15:40.478Z,34.27
2022-11-30T23:20:51.914Z,36.50
2022-11-30T23:26:15.952Z,32.30
2022-11-30T23:31:33.696Z,34.60
2022-11-30T23:36:46.398Z,35.37
2022-11-30T23:39:13.749Z,36.50
2022-11-30T23:41:40.575Z,33.67
2022-11-30T23:44:07.452Z,31.83
2022-11-30T23:46:34.168Z,33.83
2022-11-30T23:49:00.804Z,37.00
2022-11-30T23:51:27.530Z,32.53
2022-11-30T23:53:54.158Z,34.57
2022-11-30T23:56:20.926Z,32.93
2022-11-30T23:58:47.976Z,34.27
